createdAt,value
2018-06-12T00:04:13.482Z,16.10
2018-06-12T00:09:04.382Z,16.00
2018-06-12T00:13:55.289Z,15.90
2018-06-12T00:18:46.228Z,15.90
2018-06-12T00:23:37.124Z,15.80
2018-06-12T00:28:28.084Z,15.70
2018-06-12T00:33:18.977Z,15.70
2018-06-12T00:38:09.917Z,15.60
2018-06-12T00:43:00.825Z,15.60
2018-06-12T00:47:51.721Z,15.50
2018-06-12T00:52:42.607Z,15.40
2018-06-12T00:57:34.240Z,15.30
2018-06-12T01:02:25.885Z,15.30
2018-06-12T01:07:16.785Z,15.30
2018-06-12T01:12:08.491Z,15.20
2018-06-12T01:16:59.409Z,15.20
2018-06-12T01:21:50.306Z,15.20
2018-06-12T01:26:41.199Z,15.10
2018-06-12T01:31:32.151Z,15.00
2018-06-12T01:36:23.043Z,15.00
2018-06-12T01:41:13.938Z,15.00
2018-06-12T01:46:05.566Z,14.90
2018-06-12T01:50:57.268Z,14.90
2018-06-12T01:55:48.166Z,14.80
2018-06-12T02:00:39.124Z,14.90
2018-06-12T02:05:31.553Z,14.80
2018-06-12T02:10:22.445Z,14.80
2018-06-12T02:15:13.610Z,14.80
2018-06-12T02:20:04.528Z,14.80
2018-06-12T02:24:55.565Z,14.80
2018-06-12T02:29:46.560Z,14.80
2018-06-12T02:34:37.465Z,14.70
2018-06-12T02:39:28.396Z,14.70
2018-06-12T02:44:19.284Z,14.70
2018-06-12T02:49:10.167Z,14.70
2018-06-12T02:54:01.052Z,14.70
2018-06-12T02:58:52.022Z,14.70
2018-06-12T03:03:42.882Z,14.70
2018-06-12T03:08:33.812Z,14.70
2018-06-12T03:13:24.725Z,14.60
2018-06-12T03:18:15.630Z,14.60
2018-06-12T03:23:06.531Z,14.60
2018-06-12T03:27:57.445Z,14.60
2018-06-12T03:32:48.340Z,14.60
2018-06-12T03:37:40.008Z,14.60
2018-06-12T03:42:30.930Z,14.60
2018-06-12T03:47:21.881Z,14.60
2018-06-12T03:52:12.780Z,14.60
2018-06-12T03:57:03.670Z,14.50
2018-06-12T04:01:54.578Z,14.60
2018-06-12T04:06:46.232Z,14.50
2018-06-12T04:11:37.112Z,14.50
2018-06-12T04:16:28.020Z,14.60
2018-06-12T04:21:19.731Z,14.70
2018-06-12T04:26:10.679Z,14.70
2018-06-12T04:31:02.320Z,14.80
2018-06-12T04:35:53.204Z,14.80
2018-06-12T04:40:44.083Z,14.90
2018-06-12T04:45:35.050Z,15.00
2018-06-12T04:50:25.966Z,15.10
2018-06-12T04:55:16.893Z,15.10
2018-06-12T05:00:07.798Z,15.20
2018-06-12T05:04:58.728Z,15.20
2018-06-12T05:09:49.622Z,15.30
2018-06-12T05:14:40.557Z,15.40
2018-06-12T05:19:31.475Z,15.40
2018-06-12T05:24:22.375Z,15.50
2018-06-12T05:29:13.277Z,15.50
2018-06-12T05:34:04.228Z,15.60
2018-06-12T05:38:55.134Z,15.60
2018-06-12T05:43:46.037Z,15.70
2018-06-12T05:48:36.930Z,15.80
2018-06-12T05:53:28.570Z,15.90
2018-06-12T05:58:20.211Z,16.00
2018-06-12T06:03:11.103Z,16.00
2018-06-12T06:08:02.814Z,16.10
2018-06-12T06:12:53.700Z,16.10
2018-06-12T06:17:44.597Z,16.20
2018-06-12T06:22:36.336Z,16.40
2018-06-12T06:27:27.205Z,16.30
2018-06-12T06:32:18.114Z,16.50
2018-06-12T06:37:09.026Z,16.50
2018-06-12T06:41:59.911Z,16.60
2018-06-12T06:46:50.889Z,16.60
2018-06-12T06:51:41.785Z,16.70
2018-06-12T06:56:32.696Z,16.80
2018-06-12T07:01:23.641Z,16.90
2018-06-12T07:06:14.549Z,17.00
2018-06-12T07:11:05.447Z,17.10
2018-06-12T07:15:57.227Z,17.40
2018-06-12T07:20:56.141Z,17.50
2018-06-12T07:25:47.789Z,17.60
2018-06-12T07:30:39.437Z,17.80
2018-06-12T07:35:30.341Z,17.70
2018-06-12T07:40:21.980Z,18.00
2018-06-12T07:45:13.690Z,18.10
2018-06-12T07:50:04.602Z,18.00
2018-06-12T07:54:55.577Z,18.20
2018-06-12T07:59:47.222Z,18.40
2018-06-12T08:04:38.112Z,18.40
2018-06-12T08:09:29.749Z,18.70
2018-06-12T08:14:21.393Z,18.80
2018-06-12T08:19:13.033Z,19.00
2018-06-12T08:24:04.669Z,19.10
2018-06-12T08:28:55.609Z,19.10
2018-06-12T08:33:46.545Z,19.20
2018-06-12T08:38:37.576Z,19.20
2018-06-12T08:43:28.473Z,19.30
2018-06-12T08:48:19.372Z,19.40
2018-06-12T08:53:10.317Z,19.50
2018-06-12T08:58:01.213Z,19.50
2018-06-12T09:02:52.113Z,19.60
2018-06-12T09:07:43.754Z,19.70
2018-06-12T09:12:34.678Z,19.70
2018-06-12T09:17:25.581Z,19.70
2018-06-12T09:22:17.221Z,19.90
2018-06-12T09:27:08.857Z,20.00
2018-06-12T09:32:00.493Z,20.10
2018-06-12T09:36:52.123Z,20.30
2018-06-12T09:41:43.968Z,20.40
2018-06-12T09:46:34.866Z,20.40
2018-06-12T09:51:26.522Z,20.60
2018-06-12T09:56:17.420Z,20.60
2018-06-12T10:01:08.358Z,20.80
2018-06-12T10:06:00.018Z,21.00
2018-06-12T10:10:50.925Z,21.00
2018-06-12T10:15:41.894Z,21.10
2018-06-12T10:20:32.812Z,21.20
2018-06-12T10:25:23.811Z,21.30
2018-06-12T10:30:14.713Z,21.40
2018-06-12T10:35:05.604Z,21.60
2018-06-12T10:39:57.270Z,21.70
2018-06-12T10:44:48.197Z,21.70
2018-06-12T10:49:39.219Z,21.80
2018-06-12T10:54:30.126Z,21.90
2018-06-12T10:59:21.030Z,21.90
2018-06-12T11:04:11.925Z,22.00
2018-06-12T11:09:03.556Z,22.20
2018-06-12T11:13:55.256Z,22.40
2018-06-12T11:18:46.164Z,22.40
2018-06-12T11:23:37.062Z,22.50
2018-06-12T11:28:28.008Z,22.70
2018-06-12T11:33:18.896Z,22.90
2018-06-12T11:38:09.784Z,23.20
2018-06-12T11:43:01.646Z,23.60
2018-06-12T11:47:52.607Z,23.60
2018-06-12T11:52:43.501Z,23.80
2018-06-12T11:57:34.395Z,23.90
2018-06-12T12:02:26.038Z,24.40
2018-06-12T12:07:16.950Z,24.40
2018-06-12T12:12:07.853Z,24.80
2018-06-12T12:16:59.514Z,25.70
2018-06-12T12:21:51.141Z,26.30
2018-06-12T12:26:42.042Z,26.30
2018-06-12T12:31:33.690Z,27.30
2018-06-12T12:36:25.334Z,27.50
2018-06-12T12:41:16.292Z,27.50
2018-06-12T12:46:07.184Z,27.60
2018-06-12T12:50:58.074Z,27.70
2018-06-12T12:55:49.778Z,28.10
2018-06-12T13:00:40.679Z,28.10
2018-06-12T13:05:31.581Z,28.30
2018-06-12T13:10:29.629Z,28.40
2018-06-12T13:15:21.265Z,28.50
2018-06-12T13:20:13.003Z,28.50
2018-06-12T13:25:03.885Z,28.40
2018-06-12T13:29:54.771Z,28.40
2018-06-12T13:34:45.731Z,28.30
2018-06-12T13:39:36.654Z,28.30
2018-06-12T13:44:27.801Z,28.40
2018-06-12T13:49:19.501Z,28.30
2018-06-12T13:54:10.508Z,28.30
2018-06-12T13:59:01.421Z,28.30
2018-06-12T14:03:52.365Z,28.20
2018-06-12T14:08:43.289Z,28.30
2018-06-12T14:13:34.344Z,28.50
2018-06-12T14:18:25.234Z,28.60
2018-06-12T14:23:16.145Z,28.70
2018-06-12T14:28:07.081Z,28.70
2018-06-12T14:32:57.972Z,28.90
2018-06-12T14:37:48.868Z,29.00
2018-06-12T14:42:39.808Z,29.10
2018-06-12T14:47:30.713Z,29.20
2018-06-12T14:52:21.661Z,29.30
2018-06-12T14:57:12.560Z,29.30
2018-06-12T15:02:03.465Z,29.30
2018-06-12T15:06:54.417Z,29.40
2018-06-12T15:11:46.810Z,29.00
2018-06-12T15:16:37.717Z,29.00
2018-06-12T15:21:29.413Z,28.70
2018-06-12T15:26:20.321Z,28.70
2018-06-12T15:31:11.224Z,28.60
2018-06-12T15:36:02.179Z,28.40
2018-06-12T15:40:53.190Z,28.20
2018-06-12T15:45:44.105Z,28.00
2018-06-12T15:50:35.340Z,27.70
2018-06-12T15:55:26.273Z,27.40
2018-06-12T16:00:17.917Z,26.70
2018-06-12T16:05:08.942Z,26.70
2018-06-12T16:10:00.637Z,26.20
2018-06-12T16:14:51.532Z,26.10
2018-06-12T16:19:42.429Z,25.90
2018-06-12T16:24:33.330Z,25.60
2018-06-12T16:29:24.974Z,25.10
2018-06-12T16:34:16.613Z,24.90
2018-06-12T16:39:08.273Z,24.70
2018-06-12T16:43:59.172Z,24.70
2018-06-12T16:48:50.800Z,24.40
2018-06-12T16:53:42.435Z,24.20
2018-06-12T16:58:34.140Z,24.00
2018-06-12T17:03:25.041Z,24.00
2018-06-12T17:08:15.940Z,23.90
2018-06-12T17:13:06.882Z,23.70
2018-06-12T17:17:57.765Z,23.60
2018-06-12T17:22:48.740Z,23.40
2018-06-12T17:27:39.657Z,23.20
2018-06-12T17:32:30.559Z,23.10
2018-06-12T17:37:21.470Z,22.90
2018-06-12T17:42:12.412Z,22.70
2018-06-12T17:47:03.293Z,22.60
2018-06-12T17:51:54.196Z,22.50
2018-06-12T17:56:45.106Z,22.40
2018-06-12T18:01:36.010Z,22.20
2018-06-12T18:06:27.649Z,22.00
2018-06-12T18:11:19.297Z,21.90
2018-06-12T18:16:10.950Z,21.70
2018-06-12T18:21:01.890Z,21.70
2018-06-12T18:25:52.797Z,21.60
2018-06-12T18:30:43.705Z,21.50
2018-06-12T18:35:34.645Z,21.40
2018-06-12T18:40:25.552Z,21.20
2018-06-12T18:45:16.470Z,21.10
2018-06-12T18:50:07.373Z,21.00
2018-06-12T18:54:58.327Z,20.80
2018-06-12T18:59:49.228Z,20.70
2018-06-12T19:04:40.125Z,20.60
2018-06-12T19:09:31.033Z,20.40
2018-06-12T19:14:22.746Z,20.10
2018-06-12T19:19:13.653Z,20.10
2018-06-12T19:24:04.553Z,20.00
2018-06-12T19:28:55.454Z,19.80
2018-06-12T19:33:46.366Z,19.70
2018-06-12T19:38:37.390Z,19.60
2018-06-12T19:43:28.355Z,19.40
2018-06-12T19:48:19.232Z,19.30
2018-06-12T19:53:10.128Z,19.10
2018-06-12T19:58:01.309Z,18.90
2018-06-12T20:02:52.239Z,18.80
2018-06-12T20:07:43.141Z,18.60
2018-06-12T20:12:34.082Z,18.40
2018-06-12T20:17:24.993Z,18.30
2018-06-12T20:22:15.901Z,18.10
2018-06-12T20:27:06.815Z,18.00
2018-06-12T20:31:57.720Z,17.80
2018-06-12T20:36:48.643Z,17.70
2018-06-12T20:41:39.604Z,17.50
2018-06-12T20:46:30.534Z,17.40
2018-06-12T20:51:22.189Z,17.10
2018-06-12T20:56:13.138Z,17.10
2018-06-12T21:01:04.757Z,16.90
2018-06-12T21:05:55.660Z,16.80
2018-06-12T21:10:46.566Z,16.80
2018-06-12T21:15:37.473Z,16.70
2018-06-12T21:20:29.116Z,16.60
2018-06-12T21:25:20.757Z,16.50
2018-06-12T21:30:11.673Z,16.50
2018-06-12T21:35:02.692Z,16.50
2018-06-12T21:39:54.417Z,16.40
2018-06-12T21:44:46.068Z,16.40
2018-06-12T21:49:36.957Z,16.40
2018-06-12T21:54:27.865Z,16.40
2018-06-12T21:59:18.769Z,16.40
2018-06-12T22:04:09.822Z,16.30
2018-06-12T22:09:00.781Z,16.30
2018-06-12T22:13:51.732Z,16.40
2018-06-12T22:18:42.638Z,16.30
2018-06-12T22:23:33.614Z,16.30
2018-06-12T22:28:24.592Z,16.30
2018-06-12T22:33:15.638Z,16.30
2018-06-12T22:38:07.439Z,16.20
2018-06-12T22:42:58.416Z,16.20
2018-06-12T22:47:50.153Z,16.20
2018-06-12T22:52:41.889Z,16.20
2018-06-12T22:57:33.629Z,16.10
2018-06-12T23:02:24.779Z,16.10
2018-06-12T23:07:15.784Z,16.10
2018-06-12T23:12:13.815Z,16.10
2018-06-12T23:17:04.844Z,16.10
2018-06-12T23:21:55.725Z,16.00
2018-06-12T23:26:46.669Z,16.00
2018-06-12T23:31:37.613Z,16.00
2018-06-12T23:36:30.025Z,15.90
2018-06-12T23:41:21.065Z,15.90
2018-06-12T23:46:11.997Z,15.90
2018-06-12T23:51:02.924Z,15.90
2018-06-12T23:55:53.871Z,15.90
